Time;durP1;ratioP1;P1;durP2;ratioP2;P2;SDS_P1;SDS_P2;PMS_P1;PMS_P2;Temp;Humidity;BMP_temperature;BMP_pressure;BME280_temperature;BME280_humidity;BME280_pressure;Samples;Min_cycle;Max_cycle;Signal;HPM_P1;HPM_P2
2023/07/16 00:02:19;;;;;;;;;3.75;2.50;;;;;22.94;62.16;99105.13;4973831;28;45453;-59
2023/07/16 00:04:45;;;;;;;;;1.00;1.00;;;;;22.87;61.12;99114.75;4968255;28;45425;-58
2023/07/16 00:07:10;;;;;;;;;1.00;1.00;;;;;22.83;61.62;99142.88;4969181;28;45691;-67
2023/07/16 00:09:36;;;;;;;;;0.00;0.00;;;;;22.80;61.42;99135.94;4968187;28;45633;-68
2023/07/16 00:12:01;;;;;;;;;3.00;1.00;;;;;22.73;61.61;99153.59;4973155;28;45534;-68
2023/07/16 00:14:27;;;;;;;;;1.50;1.25;;;;;22.71;61.73;99162.78;4972584;28;45556;-68
2023/07/16 00:16:52;;;;;;;;;1.00;1.00;;;;;22.67;61.07;99159.50;4973103;28;45999;-68
2023/07/16 00:19:17;;;;;;;;;1.25;1.25;;;;;22.67;61.06;99148.75;4969204;28;45514;-68
2023/07/16 00:21:43;;;;;;;;;0.50;0.50;;;;;22.65;61.07;99145.34;4973372;28;45464;-68
2023/07/16 00:24:08;;;;;;;;;2.00;2.00;;;;;22.64;61.07;99155.25;4971604;28;45380;-68
2023/07/16 00:26:34;;;;;;;;;1.00;1.00;;;;;22.67;61.12;99156.81;4973410;28;46129;-68
2023/07/16 00:28:59;;;;;;;;;0.00;0.00;;;;;22.64;60.96;99157.94;4970999;28;45462;-68
2023/07/16 00:31:24;;;;;;;;;2.00;2.00;;;;;22.63;60.28;99158.91;4977604;28;45718;-68
2023/07/16 00:33:50;;;;;;;;;0.00;0.00;;;;;22.64;60.18;99200.09;4976691;28;45316;-68
2023/07/16 00:36:15;;;;;;;;;0.00;0.00;;;;;22.60;60.33;99145.78;4966104;28;47351;-68
2023/07/16 00:38:41;;;;;;;;;0.00;0.00;;;;;22.58;60.16;99163.88;4968427;28;45591;-68
2023/07/16 00:41:07;;;;;;;;;1.00;1.00;;;;;22.56;60.22;99187.34;4976010;28;45525;-68
2023/07/16 00:43:32;;;;;;;;;1.50;0.50;;;;;22.54;60.56;99178.56;4973788;28;45454;-67
2023/07/16 00:45:58;;;;;;;;;1.75;1.75;;;;;22.55;60.21;99174.03;4976646;28;45429;-68
2023/07/16 00:48:23;;;;;;;;;1.00;1.00;;;;;22.52;60.13;99195.81;4969623;28;45383;-68
2023/07/16 00:50:52;;;;;;;;;0.50;0.50;;;;;22.48;60.08;99197.91;4975272;28;45544;-68
2023/07/16 00:53:19;;;;;;;;;1.00;1.00;;;;;22.45;60.20;99205.41;4970188;28;45467;-68
2023/07/16 00:55:45;;;;;;;;;0.00;0.00;;;;;22.45;60.34;99197.34;4976111;28;45455;-67
2023/07/16 00:58:10;;;;;;;;;0.20;0.00;;;;;22.43;59.82;99208.22;4974748;28;45529;-67
2023/07/16 01:00:37;;;;;;;;;1.00;0.50;;;;;22.42;60.22;99232.53;4976970;28;46002;-68
2023/07/16 01:03:05;;;;;;;;;1.20;1.20;;;;;22.37;60.42;99199.84;4974056;28;45315;-68
2023/07/16 01:05:36;;;;;;;;;1.00;1.00;;;;;22.34;60.42;99208.16;4975700;28;46298;-68
2023/07/16 01:08:06;;;;;;;;;0.80;0.00;;;;;22.31;60.85;99208.41;4974335;28;45356;-68
2023/07/16 01:10:33;;;;;;;;;1.20;1.00;;;;;22.29;60.73;99211.22;4971957;28;45559;-67
2023/07/16 01:12:59;;;;;;;;;0.00;0.00;;;;;22.24;60.94;99203.59;4976336;28;45450;-69
2023/07/16 01:15:25;;;;;;;;;2.20;2.00;;;;;22.23;61.18;99198.34;4976310;28;45535;-69
2023/07/16 01:17:50;;;;;;;;;1.00;1.00;;;;;22.19;60.74;99187.03;4974409;28;45486;-69
2023/07/16 01:20:16;;;;;;;;;2.00;2.00;;;;;22.24;61.77;99210.81;4977053;28;45350;-69
2023/07/16 01:23:03;;;;;;;;;1.00;1.00;;;;;22.21;61.80;99227.19;4976720;28;45373;-69
2023/07/16 01:25:46;;;;;;;;;1.60;1.60;;;;;22.18;61.95;99211.31;4973569;28;46365;-69
2023/07/16 01:28:33;;;;;;;;;0.40;0.00;;;;;22.22;62.05;99207.41;4975253;28;45494;-69
2023/07/16 01:30:59;;;;;;;;;1.80;1.80;;;;;22.21;62.05;99209.22;4970811;28;45457;-69
2023/07/16 01:33:25;;;;;;;;;1.25;1.25;;;;;22.17;61.87;99199.72;4970694;28;45535;-69
2023/07/16 01:35:52;;;;;;;;;1.00;1.00;;;;;22.14;61.62;99204.50;4974802;28;47457;-69
2023/07/16 01:38:18;;;;;;;;;1.00;1.00;;;;;22.10;62.29;99240.69;4974817;28;45580;-69
2023/07/16 01:40:44;;;;;;;;;1.40;1.40;;;;;22.10;62.01;99221.88;4976309;28;45670;-68
2023/07/16 01:43:09;;;;;;;;;2.00;2.00;;;;;22.10;62.14;99222.75;4962981;28;45456;-68
2023/07/16 01:45:35;;;;;;;;;3.25;2.00;;;;;22.09;61.37;99198.72;4976403;28;45822;-69
2023/07/16 01:48:18;;;;;;;;;1.00;1.00;;;;;22.08;61.83;99210.44;4974589;28;45375;-68
2023/07/16 01:50:44;;;;;;;;;1.00;1.00;;;;;22.04;61.32;99234.00;4974849;28;45521;-69
2023/07/16 01:53:09;;;;;;;;;2.00;2.00;;;;;22.05;61.76;99216.91;4976330;28;45477;-68
2023/07/16 01:55:34;;;;;;;;;1.50;1.50;;;;;22.04;61.41;99230.47;4976316;28;46190;-69
2023/07/16 01:58:00;;;;;;;;;3.00;2.00;;;;;22.03;61.42;99236.81;4972814;28;45416;-68
2023/07/16 02:00:25;;;;;;;;;1.00;1.00;;;;;22.03;61.45;99204.59;4971718;28;45452;-69
2023/07/16 02:02:50;;;;;;;;;2.50;2.00;;;;;22.03;61.23;99220.69;4975197;28;45397;-68
2023/07/16 02:05:16;;;;;;;;;1.00;1.00;;;;;22.06;60.77;99196.28;4973323;28;46278;-68
2023/07/16 02:07:42;;;;;;;;;2.00;1.75;;;;;22.03;60.64;99221.56;4962261;28;45541;-69
2023/07/16 02:10:07;;;;;;;;;1.00;1.00;;;;;22.06;59.72;99209.69;4966770;28;45580;-69
2023/07/16 02:12:33;;;;;;;;;3.00;2.00;;;;;22.02;58.92;99240.47;4973152;28;45516;-69
2023/07/16 02:14:58;;;;;;;;;2.00;1.25;;;;;22.01;59.11;99225.34;4975539;28;46040;-69
2023/07/16 02:17:24;;;;;;;;;1.00;1.00;;;;;21.98;58.75;99255.09;4974537;28;45502;-68
2023/07/16 02:19:49;;;;;;;;;2.00;1.00;;;;;21.99;57.67;99248.75;4972897;28;45459;-68
2023/07/16 02:22:15;;;;;;;;;2.00;1.00;;;;;21.99;57.33;99254.13;4976037;28;45487;-69
2023/07/16 02:24:40;;;;;;;;;1.00;1.00;;;;;21.96;56.67;99228.38;4973713;28;48120;-69
2023/07/16 02:27:05;;;;;;;;;2.25;1.00;;;;;21.97;56.10;99229.22;4974179;28;45505;-68
2023/07/16 02:29:31;;;;;;;;;0.50;0.00;;;;;21.95;55.56;99234.75;4969512;28;45430;-68
2023/07/16 02:31:57;;;;;;;;;1.20;1.20;;;;;21.96;55.74;99225.69;4975413;28;45379;-68
2023/07/16 02:34:22;;;;;;;;;1.75;1.00;;;;;21.97;54.90;99256.06;4974942;28;46380;-68
2023/07/16 02:36:48;;;;;;;;;1.00;1.00;;;;;21.95;55.30;99261.59;4975400;28;45462;-67
2023/07/16 02:39:13;;;;;;;;;0.00;0.00;;;;;21.95;54.87;99222.16;4975474;28;45529;-68
2023/07/16 02:41:38;;;;;;;;;1.25;1.25;;;;;21.96;54.97;99241.81;4975430;28;45589;-68
2023/07/16 02:44:05;;;;;;;;;0.00;0.00;;;;;21.95;54.72;99246.31;4973038;28;46223;-68
2023/07/16 02:46:31;;;;;;;;;0.00;0.00;;;;;21.96;55.07;99244.50;4975605;28;45466;-68
2023/07/16 02:48:56;;;;;;;;;1.25;1.00;;;;;21.94;54.80;99268.81;4975152;28;45523;-68
2023/07/16 02:51:21;;;;;;;;;1.50;1.00;;;;;21.94;54.53;99260.75;4973034;28;45609;-69
2023/07/16 02:53:47;;;;;;;;;1.00;1.00;;;;;21.94;54.06;99265.28;4973336;28;46270;-68
2023/07/16 02:56:12;;;;;;;;;2.00;2.00;;;;;21.93;54.41;99239.41;4975463;28;45437;-68
2023/07/16 02:58:37;;;;;;;;;0.00;0.00;;;;;21.93;54.51;99244.78;4972935;28;45777;-68
2023/07/16 03:01:03;;;;;;;;;2.00;1.00;;;;;21.92;54.51;99254.66;4975272;28;45386;-69
2023/07/16 03:03:29;;;;;;;;;1.00;1.00;;;;;21.92;55.19;99253.81;4973978;28;46155;-68
2023/07/16 03:05:54;;;;;;;;;1.00;1.00;;;;;21.90;55.11;99229.78;4975359;28;45390;-68
2023/07/16 03:08:20;;;;;;;;;1.00;1.00;;;;;21.91;55.10;99223.44;4971241;28;45544;-68
2023/07/16 03:10:45;;;;;;;;;1.00;1.00;;;;;21.92;54.69;99210.84;4975114;28;45508;-68
2023/07/16 03:13:10;;;;;;;;;2.00;2.00;;;;;21.93;54.80;99210.72;4973337;28;45448;-68
2023/07/16 03:15:36;;;;;;;;;2.00;2.00;;;;;21.94;54.72;99196.31;4971604;28;45443;-69
2023/07/16 03:18:01;;;;;;;;;1.00;1.00;;;;;21.93;54.76;99204.50;4972336;28;45433;-69
2023/07/16 03:20:27;;;;;;;;;1.00;1.00;;;;;21.91;55.25;99226.13;4972846;28;45564;-69
2023/07/16 03:22:52;;;;;;;;;2.00;1.25;;;;;21.88;54.86;99214.78;4973985;28;46452;-68
2023/07/16 03:25:18;;;;;;;;;2.00;2.00;;;;;21.87;54.99;99221.97;4970675;28;45423;-68
2023/07/16 03:27:43;;;;;;;;;1.00;1.00;;;;;21.86;54.96;99225.63;4974033;28;45687;-69
2023/07/16 03:30:09;;;;;;;;;1.00;1.00;;;;;21.84;54.89;99230.28;4969166;28;45670;-68
2023/07/16 03:32:34;;;;;;;;;2.00;2.00;;;;;21.85;55.13;99228.44;4973972;28;45561;-69
2023/07/16 03:35:00;;;;;;;;;1.00;1.00;;;;;21.85;55.10;99242.72;4970179;28;45374;-68
2023/07/16 03:37:25;;;;;;;;;1.50;1.00;;;;;21.82;55.15;99242.97;4974616;28;45468;-68
2023/07/16 03:39:51;;;;;;;;;0.75;0.75;;;;;21.82;55.16;99234.94;4972733;28;45575;-68
2023/07/16 03:42:16;;;;;;;;;1.00;1.00;;;;;21.83;54.50;99246.50;4974034;28;46640;-69
2023/07/16 03:44:41;;;;;;;;;3.00;3.00;;;;;21.81;54.90;99246.63;4973535;28;45430;-68
2023/07/16 03:47:07;;;;;;;;;1.00;1.00;;;;;21.84;55.05;99240.16;4974950;28;45800;-69
2023/07/16 03:49:32;;;;;;;;;2.50;2.00;;;;;21.84;55.19;99250.91;4969963;28;45377;-69
2023/07/16 03:51:57;;;;;;;;;0.00;0.00;;;;;21.86;55.33;99238.22;4973909;28;45432;-68
2023/07/16 03:54:23;;;;;;;;;2.00;2.00;;;;;21.91;55.10;99239.53;4972503;28;45419;-68
2023/07/16 03:56:48;;;;;;;;;3.00;1.00;;;;;21.97;55.02;99239.97;4973884;28;45429;-67
2023/07/16 03:59:13;;;;;;;;;4.00;2.75;;;;;22.00;54.91;99242.44;4971736;28;45583;-68
2023/07/16 04:01:39;;;;;;;;;2.00;2.00;;;;;22.03;54.61;99234.97;4973782;28;45373;-68
2023/07/16 04:04:04;;;;;;;;;2.00;2.00;;;;;22.08;54.84;99239.97;4973025;28;45463;-67
2023/07/16 04:06:29;;;;;;;;;1.00;1.00;;;;;22.11;54.37;99237.88;4975420;28;45593;-68
2023/07/16 04:08:55;;;;;;;;;1.00;1.00;;;;;22.15;54.30;99243.81;4973240;28;45496;-67
2023/07/16 04:11:20;;;;;;;;;1.00;1.00;;;;;22.19;53.98;99231.81;4977596;28;45745;-67
2023/07/16 04:13:46;;;;;;;;;1.00;1.00;;;;;22.21;54.00;99219.13;4976886;28;45458;-67
2023/07/16 04:16:11;;;;;;;;;2.00;2.00;;;;;22.25;53.89;99232.16;4978012;28;45402;-68
2023/07/16 04:18:36;;;;;;;;;2.00;2.00;;;;;22.28;53.81;99239.97;4973860;28;45863;-67
2023/07/16 04:21:02;;;;;;;;;2.50;1.25;;;;;22.30;54.00;99239.81;4977356;28;45540;-68
2023/07/16 04:23:27;;;;;;;;;2.00;2.00;;;;;22.33;53.92;99255.66;4975899;28;45411;-67
2023/07/16 04:25:54;;;;;;;;;3.00;1.25;;;;;22.37;54.16;99251.72;4977660;28;45510;-68
2023/07/16 04:28:20;;;;;;;;;1.00;1.00;;;;;22.39;54.04;99247.06;4976238;28;45750;-68
2023/07/16 04:30:45;;;;;;;;;1.00;1.00;;;;;22.39;54.27;99246.22;4976884;28;46616;-67
2023/07/16 04:33:11;;;;;;;;;0.25;0.25;;;;;22.35;54.07;99250.16;4976688;28;45347;-67
2023/07/16 04:35:36;;;;;;;;;1.00;1.00;;;;;22.32;54.02;99251.25;4977629;28;45940;-67
2023/07/16 04:38:01;;;;;;;;;2.00;1.25;;;;;22.30;54.43;99255.91;4976667;28;45625;-67
2023/07/16 04:40:29;;;;;;;;;1.00;1.00;;;;;22.29;54.30;99255.06;4976326;28;45534;-68
2023/07/16 04:42:54;;;;;;;;;1.00;1.00;;;;;22.32;54.10;99253.94;4975277;28;45390;-67
2023/07/16 04:45:20;;;;;;;;;1.25;1.25;;;;;22.35;54.10;99256.38;4972910;28;45536;-67
2023/07/16 04:47:45;;;;;;;;;1.75;1.75;;;;;22.41;53.94;99253.16;4975089;28;45513;-67
2023/07/16 04:50:11;;;;;;;;;1.75;1.75;;;;;22.51;54.21;99255.91;4974244;28;45674;-67
2023/07/16 04:52:37;;;;;;;;;2.00;2.00;;;;;22.59;53.91;99256.09;4975736;28;45616;-67
2023/07/16 04:55:02;;;;;;;;;1.20;0.00;;;;;22.64;54.05;99262.75;4975005;28;45434;-67
2023/07/16 04:57:28;;;;;;;;;2.00;2.00;;;;;22.69;53.48;99265.03;4975378;28;45544;-67
2023/07/16 04:59:53;;;;;;;;;2.00;2.00;;;;;22.74;53.82;99272.72;4975934;28;45495;-67
2023/07/16 05:02:19;;;;;;;;;2.00;1.00;;;;;22.76;53.69;99286.88;4976245;28;45401;-67
2023/07/16 05:04:47;;;;;;;;;2.00;2.00;;;;;22.74;53.78;99296.91;4974224;28;45626;-67
2023/07/16 05:07:12;;;;;;;;;1.00;1.00;;;;;22.68;53.73;99294.75;4976180;28;45371;-67
2023/07/16 05:09:38;;;;;;;;;3.75;1.25;;;;;22.58;54.97;99298.25;4974470;28;46221;-67
2023/07/16 05:12:04;;;;;;;;;2.25;2.00;;;;;22.50;55.18;99306.09;4975769;28;45264;-67
2023/07/16 05:14:29;;;;;;;;;2.00;1.00;;;;;22.41;54.74;99293.47;4973718;28;45489;-67
2023/07/16 05:16:57;;;;;;;;;1.75;1.00;;;;;22.35;55.10;99285.94;4975965;28;45489;-67
2023/07/16 05:19:23;;;;;;;;;1.60;1.60;;;;;22.32;55.02;99282.66;4967704;28;46174;-67
2023/07/16 05:21:48;;;;;;;;;1.00;1.00;;;;;22.27;55.17;99291.13;4973411;28;45460;-68
2023/07/16 05:24:14;;;;;;;;;1.75;1.75;;;;;22.25;55.41;99295.78;4975475;28;45617;-68
2023/07/16 05:26:39;;;;;;;;;1.00;1.00;;;;;22.25;55.99;99301.16;4976297;28;45517;-68
2023/07/16 05:29:04;;;;;;;;;1.00;1.00;;;;;22.26;55.94;99313.59;4970959;28;46052;-67
2023/07/16 05:31:30;;;;;;;;;2.25;2.00;;;;;22.27;56.25;99326.03;4961947;28;45465;-67
2023/07/16 05:33:55;;;;;;;;;2.75;2.75;;;;;22.24;56.50;99327.16;4970927;28;45498;-66
2023/07/16 05:36:21;;;;;;;;;1.00;1.00;;;;;22.19;56.87;99315.94;4973254;28;45519;-66
2023/07/16 05:38:46;;;;;;;;;2.25;2.00;;;;;22.13;56.91;99324.50;4965394;28;45881;-66
2023/07/16 05:41:11;;;;;;;;;1.50;1.50;;;;;22.09;55.98;99325.75;4973567;28;45511;-66
2023/07/16 05:43:37;;;;;;;;;1.50;1.00;;;;;22.07;57.17;99322.34;4972942;28;45485;-66
2023/07/16 05:46:05;;;;;;;;;1.50;1.50;;;;;22.08;57.15;99324.06;4972844;28;45505;-66
2023/07/16 05:48:30;;;;;;;;;1.40;1.40;;;;;22.11;57.24;99323.81;4968407;28;46655;-67
2023/07/16 05:50:55;;;;;;;;;2.00;2.00;;;;;22.17;56.65;99320.59;4968120;28;45594;-67
2023/07/16 05:53:21;;;;;;;;;2.00;1.00;;;;;22.22;56.65;99321.06;4968069;28;45493;-66
2023/07/16 05:55:49;;;;;;;;;1.25;1.25;;;;;22.26;56.51;99325.19;4966778;28;45521;-66
2023/07/16 05:58:15;;;;;;;;;2.00;2.00;;;;;22.29;56.69;99319.53;4971808;28;45498;-67
2023/07/16 06:00:40;;;;;;;;;2.25;1.00;;;;;22.34;56.37;99337.94;4972695;28;45473;-66
2023/07/16 06:03:05;;;;;;;;;2.00;2.00;;;;;22.36;56.25;99333.31;4972475;28;45868;-67
2023/07/16 06:05:33;;;;;;;;;3.00;2.00;;;;;22.38;56.08;99327.81;4973404;28;45410;-66
2023/07/16 06:07:59;;;;;;;;;1.00;1.00;;;;;22.40;55.96;99323.16;4968959;28;45465;-66
2023/07/16 06:10:25;;;;;;;;;4.00;1.00;;;;;22.41;56.29;99327.53;4972937;28;45478;-66
2023/07/16 06:12:50;;;;;;;;;2.50;1.50;;;;;22.46;56.20;99323.47;4971383;28;45815;-66
2023/07/16 06:15:15;;;;;;;;;1.00;1.00;;;;;22.49;55.87;99319.66;4972612;28;45482;-66
2023/07/16 06:17:41;;;;;;;;;2.00;2.00;;;;;22.52;56.28;99317.56;4972292;28;45809;-65
2023/07/16 06:20:07;;;;;;;;;1.75;1.75;;;;;22.56;55.93;99315.47;4972708;28;45533;-67
2023/07/16 06:22:33;;;;;;;;;2.80;2.00;;;;;22.60;55.28;99316.91;4973142;28;45577;-65
2023/07/16 06:24:59;;;;;;;;;3.00;2.00;;;;;22.64;55.74;99308.44;4972137;28;45716;-64
2023/07/16 06:27:25;;;;;;;;;0.40;0.20;;;;;22.72;55.38;99315.00;4971606;28;46663;-65
2023/07/16 06:29:50;;;;;;;;;1.25;1.25;;;;;22.75;54.99;99317.44;4969626;28;45489;-64
2023/07/16 06:32:15;;;;;;;;;1.00;1.00;;;;;22.75;55.25;99312.06;4973401;28;45424;-64
2023/07/16 06:34:41;;;;;;;;;1.50;1.50;;;;;22.79;55.42;99314.34;4970487;28;45686;-65
2023/07/16 06:37:06;;;;;;;;;2.25;2.25;;;;;22.80;55.39;99313.38;4973367;28;45419;-65
2023/07/16 06:39:32;;;;;;;;;1.00;1.00;;;;;22.81;54.86;99304.31;4971914;28;45569;-66
2023/07/16 06:41:57;;;;;;;;;0.00;0.00;;;;;22.81;55.23;99300.78;4972678;28;45394;-65
2023/07/16 06:44:23;;;;;;;;;2.00;2.00;;;;;22.81;55.37;99303.47;4972170;28;45599;-65
2023/07/16 06:46:48;;;;;;;;;3.00;1.25;;;;;22.79;54.71;99316.22;4973082;28;45518;-65
2023/07/16 06:49:14;;;;;;;;;3.00;2.00;;;;;22.77;54.66;99310.13;4965324;28;45497;-65
2023/07/16 06:51:39;;;;;;;;;1.75;1.75;;;;;22.82;55.12;99307.84;4971515;28;45371;-65
2023/07/16 06:54:06;;;;;;;;;2.00;2.00;;;;;22.87;54.71;99311.00;4970686;28;45367;-65
2023/07/16 06:56:31;;;;;;;;;2.40;2.00;;;;;22.92;54.79;99315.00;4971853;28;45494;-65
2023/07/16 06:58:57;;;;;;;;;1.50;1.50;;;;;22.98;55.00;99319.81;4972260;28;45446;-65
2023/07/16 07:01:22;;;;;;;;;1.00;1.00;;;;;23.03;54.59;99318.56;4971171;28;45801;-65
2023/07/16 07:03:49;;;;;;;;;2.00;2.00;;;;;23.09;54.41;99318.88;4968622;28;45522;-65
2023/07/16 07:06:14;;;;;;;;;2.20;2.00;;;;;23.17;54.34;99315.50;4972052;28;46457;-65
2023/07/16 07:08:40;;;;;;;;;1.00;1.00;;;;;23.31;54.14;99307.91;4970353;28;45453;-65
2023/07/16 07:11:05;;;;;;;;;4.25;2.00;;;;;23.42;53.48;99306.94;4970442;28;45664;-65
2023/07/16 07:13:31;;;;;;;;;1.75;1.75;;;;;23.51;53.82;99306.16;4969635;28;45480;-65
2023/07/16 07:15:56;;;;;;;;;4.00;2.00;;;;;23.57;52.80;99297.53;4968056;28;45415;-65
2023/07/16 07:18:22;;;;;;;;;2.50;2.00;;;;;23.61;53.42;99309.72;4970668;28;45729;-65
2023/07/16 07:20:47;;;;;;;;;1.00;1.00;;;;;23.69;52.60;99300.94;4972439;28;45564;-65
2023/07/16 07:23:14;;;;;;;;;3.75;2.00;;;;;23.76;52.54;99303.94;4969501;28;45604;-65
2023/07/16 07:25:40;;;;;;;;;1.80;1.80;;;;;23.80;52.70;99303.47;4968890;28;45661;-65
2023/07/16 07:28:07;;;;;;;;;1.75;1.00;;;;;23.80;52.72;99299.94;4970188;28;45482;-65
2023/07/16 07:30:32;;;;;;;;;2.40;2.40;;;;;23.83;52.60;99299.66;4968692;28;45517;-65
2023/07/16 07:32:57;;;;;;;;;3.00;2.00;;;;;23.89;52.48;99296.41;4970514;28;45586;-65
2023/07/16 07:35:23;;;;;;;;;2.50;2.50;;;;;23.98;52.23;99296.41;4969421;28;45718;-65
2023/07/16 07:37:48;;;;;;;;;3.00;1.75;;;;;24.11;52.76;99300.66;4970113;28;45497;-65
2023/07/16 07:40:14;;;;;;;;;1.00;1.00;;;;;24.20;51.97;99299.78;4968619;28;45530;-65
2023/07/16 07:42:39;;;;;;;;;2.00;2.00;;;;;24.26;51.46;99292.03;4970476;28;45395;-65
2023/07/16 07:45:05;;;;;;;;;3.25;3.00;;;;;24.29;51.84;99290.91;4971159;28;46314;-65
2023/07/16 07:47:30;;;;;;;;;1.00;1.00;;;;;24.31;51.59;99286.19;4970589;28;46027;-65
2023/07/16 07:49:56;;;;;;;;;2.25;2.25;;;;;24.31;51.30;99291.59;4966123;28;45645;-65
2023/07/16 07:52:21;;;;;;;;;2.25;2.00;;;;;24.32;52.16;99279.81;4971405;28;45427;-65
2023/07/16 07:54:47;;;;;;;;;3.00;3.00;;;;;24.32;51.35;99279.81;4965122;28;46742;-65
2023/07/16 07:57:12;;;;;;;;;4.75;2.00;;;;;24.34;52.06;99275.97;4971436;28;45478;-65
2023/07/16 07:59:37;;;;;;;;;3.00;3.00;;;;;24.41;51.73;99278.97;4970910;28;45566;-65
2023/07/16 08:02:03;;;;;;;;;2.00;2.00;;;;;24.42;51.84;99267.19;4971452;28;45562;-65
2023/07/16 08:04:29;;;;;;;;;2.00;2.00;;;;;24.43;51.35;99279.66;4969286;28;45410;-65
2023/07/16 08:06:54;;;;;;;;;3.00;1.00;;;;;24.42;51.47;99269.88;4970123;28;45421;-65
2023/07/16 08:09:20;;;;;;;;;3.80;2.80;;;;;24.39;50.99;99272.84;4969984;28;45473;-65
2023/07/16 08:11:46;;;;;;;;;2.00;2.00;;;;;24.40;51.25;99273.72;4971357;28;45722;-65
2023/07/16 08:14:11;;;;;;;;;4.00;3.00;;;;;24.43;50.85;99262.63;4950304;28;47333;-64
2023/07/16 08:16:36;;;;;;;;;3.25;2.50;;;;;24.46;50.80;99271.28;4971577;28;45463;-64
2023/07/16 08:19:02;;;;;;;;;3.00;3.00;;;;;24.47;50.88;99264.03;4968272;28;45484;-64
2023/07/16 08:21:28;;;;;;;;;0.00;0.00;;;;;24.46;51.01;99265.06;4971331;28;45492;-64
2023/07/16 08:23:53;;;;;;;;;3.25;2.50;;;;;24.51;50.62;99270.84;4968454;28;46109;-64
2023/07/16 08:26:18;;;;;;;;;3.25;3.25;;;;;24.49;50.99;99265.59;4971232;28;45468;-65
2023/07/16 08:28:44;;;;;;;;;1.75;1.75;;;;;24.48;51.16;99269.28;4971360;28;45555;-65
2023/07/16 08:31:13;;;;;;;;;2.00;2.00;;;;;24.47;51.07;99267.56;4970597;28;45450;-65
2023/07/16 08:33:39;;;;;;;;;1.80;1.80;;;;;24.48;50.98;99265.72;4967417;28;45454;-65
2023/07/16 08:36:04;;;;;;;;;0.80;0.00;;;;;24.52;51.24;99265.31;4968605;28;45378;-65
2023/07/16 08:38:30;;;;;;;;;3.50;2.00;;;;;24.55;51.35;99274.94;4967470;28;45539;-64
2023/07/16 08:40:55;;;;;;;;;2.00;2.00;;;;;24.51;51.91;99263.59;4968894;28;45453;-67
2023/07/16 08:43:21;;;;;;;;;2.25;2.25;;;;;24.49;51.90;99262.03;4968882;28;46249;-65
2023/07/16 08:45:49;;;;;;;;;2.20;2.20;;;;;24.45;52.35;99257.97;4970039;28;45467;-65
2023/07/16 08:48:16;;;;;;;;;3.00;3.00;;;;;24.44;51.75;99257.09;4966661;28;45520;-64
2023/07/16 08:50:45;;;;;;;;;2.20;2.20;;;;;24.45;52.10;99266.03;4974085;28;45395;-64
2023/07/16 08:53:11;;;;;;;;;3.60;3.60;;;;;24.41;52.06;99260.09;4970405;28;45629;-65
2023/07/16 08:55:38;;;;;;;;;4.25;3.00;;;;;24.34;52.25;99264.34;4974598;28;45494;-65
2023/07/16 08:58:05;;;;;;;;;3.00;3.00;;;;;24.28;53.04;99263.09;4971138;28;45512;-64
2023/07/16 09:00:30;;;;;;;;;3.20;2.00;;;;;24.26;53.25;99266.94;4974077;28;45473;-65
2023/07/16 09:02:56;;;;;;;;;0.00;0.00;;;;;24.24;53.52;99263.53;4973292;28;45456;-64
2023/07/16 09:05:22;;;;;;;;;4.75;2.00;;;;;24.25;53.12;99279.56;4983824;28;45437;-65
2023/07/16 09:07:48;;;;;;;;;2.00;2.00;;;;;24.26;53.53;99259.69;4965740;28;45450;-64
2023/07/16 09:10:13;;;;;;;;;2.40;2.40;;;;;24.32;53.75;99269.03;4973239;28;45469;-65
2023/07/16 09:12:46;;;;;;;;;3.00;3.00;;;;;24.33;53.44;99262.66;4971433;28;45534;-64
2023/07/16 09:15:13;;;;;;;;;3.20;3.00;;;;;24.32;53.89;99259.09;4971917;28;45524;-64
2023/07/16 09:17:39;;;;;;;;;3.20;3.20;;;;;24.35;53.40;99258.81;4973591;28;45450;-64
2023/07/16 09:20:06;;;;;;;;;3.00;2.50;;;;;24.36;53.61;99248.88;4953702;28;45490;-64
2023/07/16 09:22:33;;;;;;;;;3.20;3.20;;;;;24.38;53.70;99251.44;4973429;28;45886;-64
2023/07/16 09:25:00;;;;;;;;;2.00;2.00;;;;;24.45;53.56;99257.97;4971320;28;45562;-64
2023/07/16 09:27:29;;;;;;;;;2.20;2.20;;;;;24.50;52.93;99252.97;4973568;28;45439;-64
2023/07/16 09:29:55;;;;;;;;;4.00;3.60;;;;;24.55;53.32;99239.91;4967410;28;45552;-64
2023/07/16 09:32:20;;;;;;;;;2.50;2.50;;;;;24.60;53.00;99243.00;4973361;28;46125;-64
2023/07/16 09:34:49;;;;;;;;;3.00;3.00;;;;;24.62;52.59;99236.47;4973013;28;45410;-64
2023/07/16 09:37:17;;;;;;;;;3.20;2.80;;;;;24.67;52.97;99233.31;4973324;28;45459;-64
2023/07/16 09:39:46;;;;;;;;;3.00;3.00;;;;;24.74;52.82;99231.75;4972004;28;45502;-65
2023/07/16 09:42:13;;;;;;;;;4.80;3.20;;;;;24.81;52.75;99226.59;4973047;28;46113;-65
2023/07/16 09:44:41;;;;;;;;;3.40;3.00;;;;;24.82;52.52;99230.97;4971032;28;45504;-65
2023/07/16 09:47:06;;;;;;;;;4.00;4.00;;;;;24.83;52.40;99224.59;4971082;28;45480;-64
2023/07/16 09:49:32;;;;;;;;;1.75;1.75;;;;;24.85;52.63;99212.66;4971830;28;45492;-64
2023/07/16 09:51:58;;;;;;;;;5.00;4.00;;;;;24.87;52.66;99231.38;4972869;28;47346;-65
2023/07/16 09:54:26;;;;;;;;;4.20;3.40;;;;;24.92;52.18;99219.16;4970391;28;45568;-64
2023/07/16 09:56:58;;;;;;;;;5.60;3.80;;;;;24.95;52.13;99218.91;4973419;28;45621;-65
2023/07/16 09:59:27;;;;;;;;;5.40;4.00;;;;;25.02;51.74;99205.66;4969534;28;45515;-65
2023/07/16 10:01:53;;;;;;;;;3.00;3.00;;;;;25.12;51.90;99209.16;4971678;28;46412;-64
2023/07/16 10:04:19;;;;;;;;;4.00;4.00;;;;;25.22;52.02;99209.94;4948030;28;45559;-65
2023/07/16 10:06:54;;;;;;;;;1.40;1.40;;;;;25.32;51.82;99215.25;4965902;28;45451;-65
2023/07/16 10:09:40;;;;;;;;;3.40;2.00;;;;;25.47;51.71;99207.50;4971523;28;45418;-65
2023/07/16 10:12:18;;;;;;;;;2.20;1.80;;;;;25.54;51.11;99203.16;4968640;28;46517;-65
2023/07/16 10:14:48;;;;;;;;;3.00;2.00;;;;;25.59;51.45;99201.69;4970250;28;45435;-65
2023/07/16 10:17:18;;;;;;;;;3.40;3.00;;;;;25.65;50.96;99198.38;4973071;28;45482;-64
2023/07/16 10:20:10;;;;;;;;;3.40;2.80;;;;;25.68;50.86;99197.22;4967620;28;45477;-65
2023/07/16 10:22:41;;;;;;;;;2.60;2.00;;;;;25.68;50.91;99194.53;4972800;28;45587;-66
2023/07/16 10:25:22;;;;;;;;;1.00;1.00;;;;;25.65;50.86;99202.94;4971045;28;45418;-65
2023/07/16 10:27:50;;;;;;;;;3.60;2.00;;;;;25.61;50.66;99193.44;4972270;28;45463;-65
2023/07/16 10:30:16;;;;;;;;;3.00;2.00;;;;;25.64;51.04;99201.25;4968899;28;45552;-65
2023/07/16 10:32:42;;;;;;;;;2.20;2.20;;;;;25.73;50.96;99192.22;4972804;28;46354;-65
2023/07/16 10:35:11;;;;;;;;;3.00;3.00;;;;;25.85;50.35;99185.56;4966101;28;45576;-65
2023/07/16 10:37:38;;;;;;;;;2.00;2.00;;;;;25.95;50.29;99177.38;4972187;28;45448;-65
2023/07/16 10:40:04;;;;;;;;;2.00;2.00;;;;;26.04;49.92;99189.94;4972647;28;45494;-67
2023/07/16 10:42:30;;;;;;;;;2.60;2.60;;;;;26.08;49.50;99184.06;4972059;28;46117;-67
2023/07/16 10:45:01;;;;;;;;;1.00;1.00;;;;;26.09;49.94;99184.91;4971186;28;45561;-67
2023/07/16 10:47:30;;;;;;;;;0.80;0.80;;;;;26.12;49.65;99194.56;4972802;28;45537;-67
2023/07/16 10:49:56;;;;;;;;;1.80;1.80;;;;;26.12;49.47;99186.44;4967878;28;45405;-68
2023/07/16 10:52:22;;;;;;;;;2.25;2.25;;;;;26.16;49.42;99177.00;4972255;28;46118;-67
2023/07/16 10:54:49;;;;;;;;;2.00;2.00;;;;;26.17;49.16;99182.25;4969265;28;45493;-67
2023/07/16 10:57:16;;;;;;;;;2.80;2.60;;;;;26.20;49.26;99181.09;4969712;28;45522;-68
2023/07/16 10:59:43;;;;;;;;;2.60;2.60;;;;;26.24;48.90;99172.50;4972674;28;45565;-68
2023/07/16 11:02:12;;;;;;;;;2.80;2.80;;;;;26.25;48.89;99170.66;4970958;28;46341;-68
2023/07/16 11:04:38;;;;;;;;;3.20;2.80;;;;;26.21;48.37;99162.00;4966681;28;45547;-67
2023/07/16 11:07:14;;;;;;;;;2.00;2.00;;;;;26.20;49.21;99163.00;4973100;28;45587;-68
2023/07/16 11:09:42;;;;;;;;;2.80;1.80;;;;;26.17;48.81;99162.47;4970902;28;45507;-68
2023/07/16 11:12:09;;;;;;;;;2.60;2.60;;;;;26.13;48.72;99170.09;4970934;28;47014;-69
2023/07/16 11:14:35;;;;;;;;;2.00;2.00;;;;;26.06;48.69;99161.75;4970289;28;45492;-68
2023/07/16 11:17:06;;;;;;;;;2.00;2.00;;;;;26.05;49.00;99164.59;4973164;28;45391;-69
2023/07/16 11:19:31;;;;;;;;;2.00;2.00;;;;;26.08;49.15;99153.50;4971324;28;45566;-68
2023/07/16 11:21:57;;;;;;;;;1.75;1.75;;;;;26.11;48.92;99155.03;4970757;28;46466;-68
2023/07/16 11:24:23;;;;;;;;;2.00;2.00;;;;;26.13;49.03;99137.66;4960014;28;45523;-68
2023/07/16 11:26:52;;;;;;;;;1.50;1.25;;;;;26.14;48.80;99143.91;4969593;28;45606;-68
2023/07/16 11:29:17;;;;;;;;;4.00;3.60;;;;;26.17;49.18;99135.44;4966722;28;45557;-68
2023/07/16 11:31:43;;;;;;;;;2.75;2.00;;;;;26.16;49.01;99121.09;4972159;28;46452;-68